Time;durP1;ratioP1;P1;durP2;ratioP2;P2;SDS_P1;SDS_P2;PMS_P1;PMS_P2;Temp;Humidity;BMP_temperature;BMP_pressure;BME280_temperature;BME280_humidity;BME280_pressure;Samples;Min_cycle;Max_cycle;Signal;HPM_P1;HPM_P2
2022/12/01 00:02:01;;;;;;;31.57;24.63;;;6.50;99.90;;;;;;5001189;28;20191;-86
2022/12/01 00:04:27;;;;;;;31.67;23.57;;;6.60;99.90;;;;;;4999629;28;20203;-84
2022/12/01 00:06:59;;;;;;;32.40;24.67;;;6.60;99.90;;;;;;4998499;28;20200;-87
2022/12/01 00:12:47;;;;;;;31.37;21.93;;;6.60;99.90;;;;;;4987412;28;20191;-80
2022/12/01 00:15:12;;;;;;;31.87;24.40;;;6.50;99.90;;;;;;4988227;28;20248;-86
2022/12/01 00:17:38;;;;;;;29.83;22.73;;;6.60;99.90;;;;;;4985569;28;20631;-87
2022/12/01 00:20:07;;;;;;;28.73;20.23;;;6.50;99.90;;;;;;4981498;28;20176;-87
2022/12/01 00:22:33;;;;;;;32.23;22.47;;;6.50;99.90;;;;;;4982864;28;20199;-87
2022/12/01 00:25:06;;;;;;;29.17;22.60;;;6.50;99.90;;;;;;4985597;28;20176;-79
2022/12/01 00:27:33;;;;;;;28.67;20.20;;;6.50;99.90;;;;;;4991371;28;20207;-78
2022/12/01 00:30:08;;;;;;;31.47;23.37;;;6.60;99.90;;;;;;4992022;28;20207;-85
2022/12/01 00:32:43;;;;;;;26.40;20.77;;;6.60;99.90;;;;;;4989393;28;20159;-88
2022/12/01 00:35:09;;;;;;;29.77;22.67;;;6.60;99.90;;;;;;4994462;28;20160;-86
2022/12/01 00:37:38;;;;;;;29.50;20.80;;;6.70;99.90;;;;;;4990700;28;20703;-87
2022/12/01 00:40:10;;;;;;;29.60;21.13;;;6.60;99.90;;;;;;4987289;28;20184;-84
2022/12/01 00:42:39;;;;;;;32.47;23.63;;;6.60;99.90;;;;;;4986541;28;20179;-89
2022/12/01 00:45:05;;;;;;;28.43;22.67;;;6.60;99.90;;;;;;4985524;28;20187;-87
2022/12/01 00:47:31;;;;;;;30.13;22.30;;;6.60;99.90;;;;;;5002495;28;20294;-86
2022/12/01 00:50:03;;;;;;;26.93;21.50;;;6.70;99.90;;;;;;5006374;28;20171;-88
2022/12/01 00:52:29;;;;;;;28.43;20.87;;;6.70;99.90;;;;;;5006719;28;20191;-86
2022/12/01 00:54:54;;;;;;;29.23;21.87;;;6.70;99.90;;;;;;5002723;28;20249;-83
2022/12/01 00:57:20;;;;;;;32.37;24.43;;;6.70;99.90;;;;;;5001670;28;20163;-86
2022/12/01 00:59:46;;;;;;;28.87;22.77;;;6.70;99.90;;;;;;5003349;28;20528;-88
2022/12/01 01:02:12;;;;;;;28.73;22.83;;;6.70;99.90;;;;;;5003453;28;20163;-86
2022/12/01 01:04:39;;;;;;;30.23;22.73;;;6.60;99.90;;;;;;5002992;28;20207;-89
2022/12/01 01:07:05;;;;;;;30.17;22.13;;;6.70;99.90;;;;;;5007968;28;20210;-87
2022/12/01 01:10:05;;;;;;;28.03;19.53;;;6.70;99.90;;;;;;5005224;28;20178;-85
2022/12/01 01:12:32;;;;;;;27.67;20.47;;;6.60;99.90;;;;;;5007703;28;20179;-88
2022/12/01 01:14:58;;;;;;;28.23;21.20;;;6.60;99.90;;;;;;5012695;28;20183;-84
2022/12/01 01:17:23;;;;;;;27.70;20.70;;;6.60;99.90;;;;;;5001391;28;20182;-83
2022/12/01 01:19:52;;;;;;;27.53;21.90;;;6.60;99.90;;;;;;5017776;28;20163;-81
2022/12/01 01:22:19;;;;;;;28.13;20.77;;;6.60;99.90;;;;;;5012999;28;20162;-87
2022/12/01 01:24:45;;;;;;;28.73;21.07;;;6.60;99.90;;;;;;5010048;28;20243;-85
2022/12/01 01:27:12;;;;;;;30.07;23.90;;;6.60;99.90;;;;;;5012566;28;20186;-80
2022/12/01 01:29:39;;;;;;;32.57;23.07;;;6.60;99.90;;;;;;5019248;28;20175;-82
2022/12/01 01:32:14;;;;;;;29.33;23.30;;;6.60;99.90;;;;;;5002729;28;20163;-83
2022/12/01 01:35:14;;;;;;;31.63;21.17;;;6.60;99.90;;;;;;5001833;28;20197;-81
2022/12/01 01:41:28;;;;;;;30.53;22.00;;;6.50;99.90;;;;;;5001237;28;20681;-88
2022/12/01 01:43:55;;;;;;;27.67;20.83;;;6.40;99.90;;;;;;5000307;28;20187;-85
2022/12/01 01:46:22;;;;;;;28.23;21.67;;;6.40;99.90;;;;;;5001781;28;20226;-85
2022/12/01 01:49:04;;;;;;;31.60;23.63;;;6.30;99.90;;;;;;5005079;28;20193;-88
2022/12/01 01:51:37;;;;;;;32.97;24.50;;;6.40;99.90;;;;;;5000024;28;20634;-88
2022/12/01 01:54:14;;;;;;;30.40;24.17;;;6.40;99.90;;;;;;4998035;28;20281;-87
2022/12/01 01:56:44;;;;;;;34.90;25.90;;;6.40;99.90;;;;;;4998573;28;20202;-88
2022/12/01 01:59:15;;;;;;;30.67;23.43;;;6.50;99.90;;;;;;4976923;28;20179;-87
2022/12/01 02:01:42;;;;;;;31.83;24.67;;;6.50;99.90;;;;;;4963643;28;20212;-87
2022/12/01 02:04:09;;;;;;;33.03;24.23;;;6.50;99.90;;;;;;4979243;28;20262;-85
2022/12/01 02:06:34;;;;;;;32.73;24.17;;;6.60;99.90;;;;;;4979720;28;20238;-85
2022/12/01 02:09:00;;;;;;;32.80;24.33;;;6.50;99.90;;;;;;4982323;28;20620;-80
2022/12/01 02:11:48;;;;;;;37.07;28.10;;;6.50;99.90;;;;;;4979493;28;20596;-86
2022/12/01 02:14:38;;;;;;;39.57;26.67;;;6.50;99.90;;;;;;4988255;28;20684;-86
2022/12/01 02:17:10;;;;;;;36.03;27.37;;;6.40;99.90;;;;;;5012436;28;20178;-78
2022/12/01 02:19:40;;;;;;;38.73;29.47;;;6.40;99.90;;;;;;5012681;28;20179;-86
2022/12/01 02:22:42;;;;;;;40.50;28.40;;;6.30;99.90;;;;;;5010339;28;20159;-82
2022/12/01 02:25:33;;;;;;;44.17;29.33;;;6.30;99.90;;;;;;4926685;29;20179;-86
2022/12/01 02:28:03;;;;;;;39.97;28.97;;;6.30;99.90;;;;;;4998390;28;20219;-82
2022/12/01 02:30:39;;;;;;;37.70;27.40;;;6.30;99.90;;;;;;4999775;28;20166;-89
2022/12/01 02:33:34;;;;;;;39.63;28.27;;;6.30;99.90;;;;;;5000637;28;20174;-82
2022/12/01 02:36:29;;;;;;;41.30;27.27;;;6.30;99.90;;;;;;5010251;28;20162;-87
2022/12/01 02:39:08;;;;;;;38.97;27.57;;;6.30;99.90;;;;;;5018050;28;20158;-85
2022/12/01 02:41:42;;;;;;;41.13;27.47;;;6.30;99.90;;;;;;5013327;28;20170;-87
2022/12/01 02:44:23;;;;;;;35.83;25.33;;;6.20;99.90;;;;;;5007717;28;20615;-88
2022/12/01 02:47:19;;;;;;;38.77;25.20;;;6.20;99.90;;;;;;4998065;28;20274;-87
2022/12/01 02:49:50;;;;;;;36.23;24.93;;;6.20;99.90;;;;;;4997831;28;20248;-86
2022/12/01 02:52:18;;;;;;;39.37;26.47;;;6.20;99.90;;;;;;4996168;28;20198;-88
2022/12/01 02:54:46;;;;;;;40.37;27.30;;;6.20;99.90;;;;;;5000439;28;20651;-86
2022/12/01 02:57:13;;;;;;;37.53;26.00;;;6.10;99.90;;;;;;4995307;28;20175;-88
2022/12/01 02:59:41;;;;;;;40.73;27.33;;;6.10;99.90;;;;;;4995624;28;20160;-86
2022/12/01 03:02:29;;;;;;;41.13;27.40;;;6.10;99.90;;;;;;4994993;28;20195;-87
2022/12/01 03:05:27;;;;;;;40.80;27.97;;;6.10;99.90;;;;;;4998396;28;20183;-87
2022/12/01 03:08:04;;;;;;;42.20;29.37;;;6.10;99.90;;;;;;4971328;28;20231;-86
2022/12/01 03:10:56;;;;;;;39.90;26.63;;;6.10;99.90;;;;;;5005034;28;20170;-83
2022/12/01 03:13:54;;;;;;;37.10;25.43;;;6.10;99.90;;;;;;5005474;28;20325;-87
2022/12/01 03:16:49;;;;;;;44.50;25.27;;;6.10;99.90;;;;;;4999432;28;20644;-86
2022/12/01 03:19:33;;;;;;;35.87;24.90;;;6.10;99.90;;;;;;4996441;28;20174;-87
2022/12/01 03:22:09;;;;;;;40.13;26.87;;;6.00;99.90;;;;;;4998634;28;20242;-87
2022/12/01 03:24:36;;;;;;;38.73;26.23;;;6.00;99.90;;;;;;4998991;28;20178;-86
2022/12/01 03:27:03;;;;;;;40.03;26.30;;;6.00;99.90;;;;;;5001544;28;20226;-86
2022/12/01 03:29:40;;;;;;;39.73;27.40;;;5.90;99.90;;;;;;5000347;28;20178;-87
2022/12/01 03:32:32;;;;;;;42.67;28.10;;;5.90;99.90;;;;;;5003416;28;20589;-87
2022/12/01 03:35:04;;;;;;;40.40;28.80;;;6.00;99.90;;;;;;4995098;28;20182;-87
2022/12/01 03:37:39;;;;;;;41.80;27.53;;;6.00;99.90;;;;;;5005526;28;20159;-85
2022/12/01 03:40:10;;;;;;;39.70;26.37;;;6.00;99.90;;;;;;5005116;28;20191;-86
2022/12/01 03:43:02;;;;;;;41.00;26.20;;;6.10;99.90;;;;;;4998863;28;20249;-86
2022/12/01 03:46:12;;;;;;;39.73;25.27;;;6.00;99.90;;;;;;4998004;28;20183;-87
2022/12/01 03:48:38;;;;;;;38.90;25.67;;;6.00;99.90;;;;;;4977927;28;20194;-87
2022/12/01 03:51:13;;;;;;;42.27;26.43;;;6.00;99.90;;;;;;4998850;28;20170;-86
2022/12/01 03:53:56;;;;;;;41.60;28.10;;;5.90;99.90;;;;;;4998114;28;20183;-88
2022/12/01 03:56:30;;;;;;;41.23;26.70;;;6.00;99.90;;;;;;4997042;28;20537;-87
2022/12/01 03:58:59;;;;;;;38.43;25.60;;;5.90;99.90;;;;;;4997867;28;20167;-87
2022/12/01 04:01:31;;;;;;;42.43;27.77;;;6.00;99.90;;;;;;5003541;28;20160;-84
2022/12/01 04:04:03;;;;;;;41.47;28.73;;;6.00;99.90;;;;;;5018103;28;20199;-82
2022/12/01 04:06:29;;;;;;;44.77;28.77;;;6.00;99.90;;;;;;5018196;28;20210;-85
2022/12/01 04:08:54;;;;;;;43.93;28.67;;;6.00;99.90;;;;;;5015132;28;20163;-83
2022/12/01 04:14:04;;;;;;;41.57;28.30;;;5.90;99.90;;;;;;5017574;28;20186;-84
2022/12/01 04:16:30;;;;;;;48.53;29.87;;;5.90;99.90;;;;;;4998913;28;20183;-86
2022/12/01 04:18:59;;;;;;;44.83;29.37;;;6.00;99.90;;;;;;5011657;28;20178;-86
2022/12/01 04:21:27;;;;;;;48.03;30.57;;;5.90;99.90;;;;;;5020868;28;20182;-82
2022/12/01 04:23:59;;;;;;;49.23;30.43;;;5.90;99.90;;;;;;5020280;28;20242;-86
2022/12/01 04:26:33;;;;;;;43.87;29.47;;;5.90;99.90;;;;;;5020267;28;20190;-81
2022/12/01 04:32:23;;;;;;;47.30;30.27;;;6.00;99.90;;;;;;5007427;28;20170;-86
2022/12/01 04:34:50;;;;;;;48.77;30.70;;;5.90;99.90;;;;;;5005328;28;20167;-87
2022/12/01 04:37:17;;;;;;;44.93;30.17;;;5.90;99.90;;;;;;4996659;28;20186;-87
2022/12/01 04:39:43;;;;;;;45.70;30.13;;;5.90;99.90;;;;;;4999717;28;20624;-80
2022/12/01 04:42:09;;;;;;;44.43;28.80;;;6.00;99.90;;;;;;5002519;28;20706;-87
2022/12/01 04:44:36;;;;;;;42.53;26.83;;;6.00;99.90;;;;;;4997776;28;20222;-88
2022/12/01 04:47:04;;;;;;;43.20;28.47;;;5.90;99.90;;;;;;4999450;28;20689;-86
2022/12/01 04:49:30;;;;;;;44.13;27.83;;;6.00;99.90;;;;;;4996832;28;20197;-87
2022/12/01 04:51:57;;;;;;;40.30;25.77;;;6.00;99.90;;;;;;5002648;28;20159;-85
2022/12/01 04:54:23;;;;;;;37.80;26.20;;;6.10;99.90;;;;;;5001907;28;20225;-87
2022/12/01 04:56:49;;;;;;;37.03;23.90;;;6.10;99.90;;;;;;5002179;28;20175;-88
2022/12/01 04:59:15;;;;;;;38.83;24.67;;;6.10;99.90;;;;;;4999078;28;20643;-86
2022/12/01 05:01:41;;;;;;;41.27;24.90;;;6.10;99.90;;;;;;5002176;28;20198;-85
2022/12/01 05:04:09;;;;;;;35.57;23.43;;;6.10;99.90;;;;;;5014078;28;20194;-86
2022/12/01 05:06:36;;;;;;;42.03;25.17;;;6.10;99.90;;;;;;5017297;28;20195;-82
2022/12/01 05:09:02;;;;;;;36.67;23.53;;;6.20;99.90;;;;;;5018850;28;20182;-79
2022/12/01 05:11:31;;;;;;;39.13;25.30;;;6.10;99.90;;;;;;5001550;28;20176;-79
2022/12/01 05:13:58;;;;;;;38.87;25.40;;;6.10;99.90;;;;;;5015101;28;20163;-81
2022/12/01 05:22:35;;;;;;;39.27;23.73;;;6.20;99.90;;;;;;4967172;28;20195;-88
2022/12/01 05:25:01;;;;;;;40.37;24.13;;;6.20;99.90;;;;;;4984240;28;20199;-82
2022/12/01 05:27:27;;;;;;;43.50;25.10;;;6.20;99.90;;;;;;4994778;28;20219;-83
2022/12/01 05:29:52;;;;;;;39.77;24.13;;;6.20;99.90;;;;;;4993631;28;20175;-86
2022/12/01 05:32:18;;;;;;;37.73;22.93;;;6.20;99.90;;;;;;4978570;28;20200;-86
2022/12/01 05:34:44;;;;;;;40.43;24.67;;;6.20;99.90;;;;;;4978904;28;20183;-80
2022/12/01 05:37:12;;;;;;;41.27;25.77;;;6.20;99.90;;;;;;4992141;28;20230;-86
2022/12/01 05:39:39;;;;;;;42.17;25.17;;;6.20;99.90;;;;;;4993432;28;20172;-83
2022/12/01 05:42:05;;;;;;;40.80;26.80;;;6.20;99.90;;;;;;4983544;28;20175;-81
2022/12/01 05:44:30;;;;;;;43.47;24.97;;;6.40;99.90;;;;;;4984310;28;20215;-85
2022/12/01 05:46:56;;;;;;;40.60;25.03;;;6.30;99.90;;;;;;4979038;28;20231;-80
2022/12/01 05:49:22;;;;;;;45.77;25.03;;;6.30;99.90;;;;;;4980069;28;20171;-85
2022/12/01 05:51:47;;;;;;;39.57;24.93;;;6.20;99.90;;;;;;4993713;28;20195;-88
2022/12/01 05:54:13;;;;;;;40.27;25.13;;;6.20;99.90;;;;;;4992223;28;20687;-84
2022/12/01 05:56:38;;;;;;;41.67;25.63;;;6.30;99.90;;;;;;4976894;28;20183;-86
2022/12/01 05:59:05;;;;;;;44.47;27.17;;;6.30;99.90;;;;;;4977429;28;20171;-80
2022/12/01 06:01:31;;;;;;;41.43;25.87;;;6.30;99.90;;;;;;4980097;28;20174;-87
2022/12/01 06:03:58;;;;;;;46.30;26.77;;;6.30;99.90;;;;;;4994134;28;20274;-86
2022/12/01 06:06:23;;;;;;;42.40;25.50;;;6.40;99.90;;;;;;4993928;28;20209;-86
2022/12/01 06:08:49;;;;;;;42.47;24.87;;;6.40;99.90;;;;;;4978945;28;20246;-86
2022/12/01 06:11:15;;;;;;;41.50;25.20;;;6.40;99.90;;;;;;4978134;28;20187;-86
2022/12/01 06:13:40;;;;;;;42.77;26.43;;;6.40;99.90;;;;;;4978432;28;20213;-86
2022/12/01 06:16:06;;;;;;;40.50;24.47;;;6.40;99.90;;;;;;4977907;28;20471;-86
2022/12/01 06:18:36;;;;;;;44.03;25.07;;;6.40;99.90;;;;;;4977380;28;20168;-88
2022/12/01 06:21:02;;;;;;;42.30;26.57;;;6.40;99.90;;;;;;4979424;28;20223;-88
2022/12/01 06:23:28;;;;;;;44.30;27.37;;;6.40;99.90;;;;;;4994940;28;20243;-87
2022/12/01 06:25:54;;;;;;;40.80;24.33;;;6.30;99.90;;;;;;4982946;28;20246;-85
2022/12/01 06:28:20;;;;;;;42.37;25.87;;;6.40;99.90;;;;;;4983265;28;20208;-86
2022/12/01 06:30:46;;;;;;;41.57;25.40;;;6.30;99.90;;;;;;4980504;28;20239;-87
2022/12/01 06:33:12;;;;;;;43.47;24.47;;;6.40;99.90;;;;;;4979024;28;20235;-87
2022/12/01 06:35:37;;;;;;;42.23;26.53;;;6.40;99.90;;;;;;4986048;28;20178;-87
2022/12/01 06:38:03;;;;;;;41.07;25.17;;;6.30;99.90;;;;;;4982104;28;20267;-85
2022/12/01 06:40:29;;;;;;;42.40;25.27;;;6.30;99.90;;;;;;4981495;28;20368;-87
2022/12/01 06:42:59;;;;;;;38.60;23.30;;;6.30;99.90;;;;;;4966853;28;20612;-85
2022/12/01 06:45:25;;;;;;;42.07;25.00;;;6.30;99.90;;;;;;4984925;28;20218;-85
2022/12/01 06:47:54;;;;;;;42.03;25.30;;;6.30;99.90;;;;;;4999345;28;20269;-84
2022/12/01 06:50:21;;;;;;;44.60;25.97;;;6.30;99.90;;;;;;5005249;28;20170;-84
2022/12/01 06:52:47;;;;;;;40.93;25.33;;;6.40;99.90;;;;;;5002024;28;20554;-83
2022/12/01 06:55:13;;;;;;;41.80;24.93;;;6.40;99.90;;;;;;5012051;28;20178;-84
2022/12/01 06:57:39;;;;;;;39.77;23.30;;;6.40;99.90;;;;;;5014852;28;20194;-85
2022/12/01 07:00:05;;;;;;;40.27;23.57;;;6.40;99.90;;;;;;5002527;28;20631;-87
2022/12/01 07:02:31;;;;;;;41.03;24.97;;;6.30;99.90;;;;;;5006178;28;20175;-84
2022/12/01 07:04:57;;;;;;;39.30;24.00;;;6.40;99.90;;;;;;5009887;28;20187;-87
2022/12/01 07:07:23;;;;;;;43.13;26.57;;;6.30;99.90;;;;;;5014488;28;20260;-85
2022/12/01 07:09:49;;;;;;;39.10;25.10;;;6.50;99.90;;;;;;5019918;28;20191;-84
2022/12/01 07:12:14;;;;;;;43.30;25.13;;;6.40;99.90;;;;;;5020521;28;20214;-86
2022/12/01 07:14:46;;;;;;;38.63;24.00;;;6.40;99.90;;;;;;5018931;28;20178;-78
2022/12/01 07:17:42;;;;;;;41.63;25.63;;;6.40;99.90;;;;;;5001041;28;20171;-88
2022/12/01 07:20:30;;;;;;;43.47;25.07;;;6.50;99.90;;;;;;5014337;28;20166;-81
2022/12/01 07:22:57;;;;;;;42.00;25.13;;;6.50;99.90;;;;;;5010976;28;20159;-79
2022/12/01 07:25:25;;;;;;;47.80;26.03;;;6.50;99.90;;;;;;5013739;28;20191;-82
2022/12/01 07:27:53;;;;;;;44.30;24.33;;;6.60;99.90;;;;;;5010140;28;20206;-87
2022/12/01 07:30:36;;;;;;;42.73;24.70;;;6.50;99.90;;;;;;5014168;28;20160;-85
2022/12/01 07:33:02;;;;;;;40.93;25.00;;;6.50;99.90;;;;;;5018332;28;20154;-86
2022/12/01 07:35:49;;;;;;;41.37;25.50;;;6.40;99.90;;;;;;5016767;28;20156;-84
2022/12/01 07:38:15;;;;;;;39.83;24.07;;;6.40;99.90;;;;;;4981424;28;20199;-79
2022/12/01 07:40:45;;;;;;;38.33;22.80;;;6.40;99.90;;;;;;5019359;28;20211;-82
2022/12/01 07:43:15;;;;;;;39.53;24.67;;;6.40;99.90;;;;;;5020334;28;20218;-82
2022/12/01 07:45:49;;;;;;;42.67;26.10;;;6.50;99.90;;;;;;5020859;28;20167;-86
2022/12/01 07:48:51;;;;;;;42.30;24.57;;;6.40;99.90;;;;;;5015931;28;20214;-79
2022/12/01 07:51:37;;;;;;;39.70;24.00;;;6.40;99.90;;;;;;4995093;28;20189;-79
2022/12/01 07:54:06;;;;;;;40.67;25.00;;;6.30;99.90;;;;;;5008885;28;20201;-78
2022/12/01 07:56:44;;;;;;;34.70;22.30;;;6.40;99.90;;;;;;4994012;28;20163;-78
2022/12/01 07:59:52;;;;;;;40.47;21.87;;;6.40;99.90;;;;;;4985725;28;20144;-84
2022/12/01 08:02:42;;;;;;;33.60;20.73;;;6.30;99.90;;;;;;5019820;28;20146;-80
2022/12/01 08:05:08;;;;;;;41.10;24.77;;;6.40;99.90;;;;;;5011894;28;20180;-81
2022/12/01 08:07:44;;;;;;;41.20;24.70;;;6.40;99.90;;;;;;5009958;28;20191;-85
2022/12/01 08:10:10;;;;;;;46.83;25.90;;;6.40;99.90;;;;;;5001550;28;20167;-83
2022/12/01 08:12:37;;;;;;;37.23;23.73;;;6.50;99.90;;;;;;5000619;28;20321;-81
2022/12/01 08:15:07;;;;;;;39.57;24.90;;;6.50;99.90;;;;;;5013027;28;20190;-81
2022/12/01 08:17:49;;;;;;;37.00;23.40;;;6.40;99.90;;;;;;5013943;28;20167;-87
2022/12/01 08:20:15;;;;;;;41.10;25.27;;;6.60;99.90;;;;;;4990795;28;20557;-85
2022/12/01 08:22:41;;;;;;;38.73;25.53;;;6.50;99.90;;;;;;5003346;28;20194;-78
2022/12/01 08:25:10;;;;;;;37.67;24.77;;;6.50;99.90;;;;;;4998946;28;20220;-83
2022/12/01 08:27:35;;;;;;;35.63;23.90;;;6.50;99.90;;;;;;5001749;28;20207;-79
2022/12/01 08:30:01;;;;;;;41.40;25.57;;;6.50;99.90;;;;;;4999748;28;20608;-82
2022/12/01 08:32:28;;;;;;;38.30;24.70;;;6.50;99.90;;;;;;5002835;28;20180;-87
2022/12/01 08:34:54;;;;;;;39.03;26.03;;;6.50;99.90;;;;;;5006015;28;20170;-85
2022/12/01 08:37:20;;;;;;;38.40;24.10;;;6.60;99.90;;;;;;4986647;28;20168;-87
2022/12/01 08:39:46;;;;;;;38.73;26.00;;;6.70;99.90;;;;;;5000891;28;20159;-84
2022/12/01 08:42:13;;;;;;;37.87;24.40;;;6.60;99.90;;;;;;4998036;28;20258;-79
2022/12/01 08:44:39;;;;;;;39.30;24.63;;;6.70;99.90;;;;;;4998048;28;20183;-81
2022/12/01 08:47:05;;;;;;;37.53;22.00;;;6.70;99.90;;;;;;5000338;28;20211;-78
2022/12/01 08:49:31;;;;;;;37.13;22.83;;;6.70;99.90;;;;;;4998168;28;20222;-78
2022/12/01 08:52:04;;;;;;;41.10;24.93;;;6.60;99.90;;;;;;5006905;28;20548;-86
2022/12/01 08:54:31;;;;;;;35.27;23.03;;;6.60;99.90;;;;;;5008730;28;20178;-87
2022/12/01 08:56:57;;;;;;;36.53;23.57;;;6.60;99.90;;;;;;5012415;28;20159;-85
2022/12/01 08:59:28;;;;;;;34.97;24.10;;;6.60;99.90;;;;;;5011138;28;20179;-83
2022/12/01 09:02:00;;;;;;;36.73;22.57;;;6.50;99.90;;;;;;5008064;28;20186;-83
2022/12/01 09:04:32;;;;;;;33.83;23.53;;;6.50;99.90;;;;;;4978593;28;20195;-87
2022/12/01 09:06:58;;;;;;;38.00;24.63;;;6.50;99.90;;;;;;5003395;28;20206;-80
2022/12/01 09:09:27;;;;;;;42.50;26.27;;;6.50;99.90;;;;;;5001772;28;20230;-85
2022/12/01 09:11:54;;;;;;;39.10;25.17;;;6.60;99.90;;;;;;5003128;28;20646;-86
2022/12/01 09:14:21;;;;;;;37.27;24.93;;;6.60;99.90;;;;;;5002108;28;20167;-86
2022/12/01 09:16:49;;;;;;;36.00;24.03;;;6.60;99.90;;;;;;5005182;28;20171;-85
2022/12/01 09:19:20;;;;;;;40.03;25.03;;;6.80;99.90;;;;;;4967640;28;20186;-86
2022/12/01 09:21:48;;;;;;;38.00;24.23;;;6.70;99.90;;;;;;5003534;28;20277;-84
2022/12/01 09:24:14;;;;;;;43.60;27.40;;;6.70;99.90;;;;;;4988223;28;20203;-85
2022/12/01 09:26:40;;;;;;;38.53;26.30;;;6.70;99.90;;;;;;5005155;28;20191;-87
2022/12/01 09:29:12;;;;;;;35.17;24.23;;;6.80;99.90;;;;;;5004664;28;20186;-84
2022/12/01 09:31:38;;;;;;;32.80;23.20;;;6.80;99.90;;;;;;5004853;28;20163;-82
2022/12/01 09:34:07;;;;;;;34.67;23.53;;;6.80;99.90;;;;;;4985047;28;20171;-83
2022/12/01 09:36:34;;;;;;;36.07;23.53;;;6.70;99.90;;;;;;5003019;28;20174;-85
2022/12/01 09:39:00;;;;;;;37.33;25.57;;;6.70;99.90;;;;;;4999622;28;20257;-83
2022/12/01 09:41:34;;;;;;;34.83;24.27;;;6.70;99.90;;;;;;5001189;28;20174;-80
2022/12/01 09:44:13;;;;;;;34.37;24.97;;;6.80;99.90;;;;;;4985857;28;20241;-86
2022/12/01 09:47:28;;;;;;;37.53;25.07;;;6.80;99.90;;;;;;5006970;28;20200;-82
2022/12/01 09:50:12;;;;;;;35.47;25.37;;;6.80;99.90;;;;;;5003751;28;20199;-81
2022/12/01 09:52:53;;;;;;;40.67;25.43;;;6.80;99.90;;;;;;5007685;28;20198;-85
2022/12/01 09:55:24;;;;;;;39.30;26.77;;;6.80;99.90;;;;;;4999844;28;20174;-79
2022/12/01 09:57:53;;;;;;;42.60;27.37;;;6.80;99.90;;;;;;4981258;28;20186;-80
2022/12/01 10:00:29;;;;;;;38.57;24.30;;;6.80;99.90;;;;;;5004007;28;20179;-83
2022/12/01 10:03:27;;;;;;;38.47;25.90;;;7.00;99.90;;;;;;5003442;28;20189;-79
2022/12/01 10:05:59;;;;;;;42.20;26.47;;;6.80;99.90;;;;;;5010156;28;20225;-78
2022/12/01 10:08:35;;;;;;;39.57;26.33;;;6.90;99.90;;;;;;4998667;28;20222;-77
2022/12/01 10:11:19;;;;;;;38.70;25.53;;;6.90;99.90;;;;;;5017212;28;20182;-84
2022/12/01 10:13:51;;;;;;;43.23;26.93;;;6.90;99.90;;;;;;5005616;28;20189;-79
2022/12/01 10:16:45;;;;;;;38.63;26.50;;;6.90;99.90;;;;;;5010570;28;20171;-77
2022/12/01 10:19:30;;;;;;;43.23;26.77;;;7.00;99.90;;;;;;5012291;28;20144;-78
2022/12/01 10:22:23;;;;;;;39.10;25.83;;;7.00;99.90;;;;;;5016470;28;20224;-82
2022/12/01 10:24:53;;;;;;;44.40;26.77;;;6.90;99.90;;;;;;4999554;28;20151;-81
2022/12/01 10:27:42;;;;;;;39.97;26.63;;;7.00;99.90;;;;;;5015542;28;20194;-83
2022/12/01 10:30:17;;;;;;;37.37;25.37;;;7.10;99.90;;;;;;5008419;28;20167;-79
2022/12/01 10:33:06;;;;;;;42.03;24.93;;;7.10;99.90;;;;;;4992693;28;20233;-79
2022/12/01 10:35:55;;;;;;;37.17;24.70;;;7.10;99.90;;;;;;5007046;28;20194;-78
2022/12/01 10:38:28;;;;;;;38.40;24.63;;;7.20;99.90;;;;;;5001897;28;20242;-82
2022/12/01 10:40:58;;;;;;;39.80;25.00;;;7.20;99.90;;;;;;4983485;28;20265;-78
2022/12/01 10:44:13;;;;;;;37.63;23.07;;;7.30;99.90;;;;;;5001420;28;20191;-79
2022/12/01 10:46:58;;;;;;;33.50;20.77;;;7.30;99.90;;;;;;5003119;28;20269;-80
2022/12/01 10:49:40;;;;;;;35.90;22.60;;;7.20;99.90;;;;;;5003339;28;20654;-83
2022/12/01 10:52:26;;;;;;;38.30;25.10;;;7.10;99.90;;;;;;4997532;28;20639;-78
2022/12/01 10:54:52;;;;;;;36.73;23.80;;;7.10;99.90;;;;;;4980426;28;20182;-80
2022/12/01 10:57:18;;;;;;;35.73;22.83;;;7.20;99.90;;;;;;4998315;28;20183;-79
2022/12/01 11:00:04;;;;;;;40.97;25.13;;;7.20;99.90;;;;;;4998112;28;20655;-80
2022/12/01 11:02:31;;;;;;;37.50;23.47;;;7.10;99.90;;;;;;5006952;28;20175;-79
2022/12/01 11:05:04;;;;;;;38.77;25.77;;;7.10;99.90;;;;;;5004924;28;20686;-81
2022/12/01 11:07:51;;;;;;;34.63;22.80;;;7.10;99.90;;;;;;5001633;28;20245;-80
2022/12/01 11:10:20;;;;;;;48.30;24.93;;;7.20;99.90;;;;;;5002702;28;20171;-79
2022/12/01 11:12:54;;;;;;;37.03;24.53;;;7.30;99.90;;;;;;4983863;28;20182;-80
2022/12/01 11:15:23;;;;;;;37.47;22.37;;;7.30;99.90;;;;;;5001791;28;20174;-79
2022/12/01 11:17:59;;;;;;;34.20;24.47;;;7.30;99.90;;;;;;5000548;28;20353;-81
2022/12/01 11:20:29;;;;;;;34.33;23.13;;;7.30;99.90;;;;;;5001087;28;20198;-83
2022/12/01 11:23:23;;;;;;;34.20;23.87;;;7.40;99.90;;;;;;4986766;28;20175;-79
2022/12/01 11:26:28;;;;;;;32.00;21.27;;;7.50;99.90;;;;;;4993276;28;20194;-78
2022/12/01 11:29:05;;;;;;;28.77;18.17;;;7.40;99.90;;;;;;5006050;28;20233;-80
2022/12/01 11:31:53;;;;;;;29.37;21.10;;;7.40;99.90;;;;;;5002522;28;20582;-79
2022/12/01 11:34:45;;;;;;;32.73;21.50;;;7.40;99.90;;;;;;5003286;28;20217;-78
2022/12/01 11:37:20;;;;;;;27.90;20.03;;;7.40;99.90;;;;;;5005622;28;20163;-87
2022/12/01 11:39:53;;;;;;;31.33;18.17;;;7.50;99.90;;;;;;4993337;28;20197;-87
2022/12/01 11:42:30;;;;;;;27.97;20.17;;;7.50;99.90;;;;;;5007880;28;20243;-84
2022/12/01 11:45:28;;;;;;;28.97;19.90;;;7.50;99.90;;;;;;5007813;28;20183;-86
2022/12/01 11:48:23;;;;;;;35.20;21.40;;;7.40;99.90;;;;;;5003850;28;20238;-86
2022/12/01 11:51:14;;;;;;;27.10;19.23;;;7.50;99.90;;;;;;5014418;28;20167;-84
2022/12/01 11:53:42;;;;;;;27.93;20.03;;;7.60;99.40;;;;;;5008351;28;20206;-84
2022/12/01 11:56:27;;;;;;;30.27;21.70;;;7.70;98.30;;;;;;5003159;28;20178;-86
2022/12/01 11:59:00;;;;;;;28.37;19.80;;;7.80;98.20;;;;;;5006381;28;20175;-88
2022/12/01 12:01:37;;;;;;;27.90;20.13;;;7.90;97.70;;;;;;4988855;28;20170;-87
2022/12/01 12:04:21;;;;;;;28.10;18.50;;;7.90;97.80;;;;;;5003698;28;20319;-88
2022/12/01 12:07:15;;;;;;;27.97;19.43;;;7.90;96.60;;;;;;4986172;28;20203;-87
2022/12/01 12:10:07;;;;;;;25.67;16.80;;;7.80;96.40;;;;;;4987405;28;20186;-84
2022/12/01 12:13:00;;;;;;;27.90;17.53;;;7.80;96.00;;;;;;5002789;28;20179;-87
2022/12/01 12:15:32;;;;;;;30.20;19.70;;;7.70;96.30;;;;;;4986312;28;20199;-88
2022/12/01 12:18:12;;;;;;;32.83;20.27;;;7.60;97.70;;;;;;5004605;28;20171;-87
2022/12/01 12:20:52;;;;;;;27.50;19.40;;;7.60;99.30;;;;;;5003541;28;20262;-88
2022/12/01 12:23:42;;;;;;;31.57;20.97;;;7.50;99.40;;;;;;5003965;28;20242;-87
2022/12/01 12:26:07;;;;;;;32.87;21.60;;;7.50;99.90;;;;;;4984930;28;20175;-87
2022/12/01 12:28:53;;;;;;;29.43;21.07;;;7.50;99.90;;;;;;5000239;28;20228;-85
2022/12/01 12:31:22;;;;;;;28.03;19.83;;;7.50;99.90;;;;;;5001084;28;20174;-88
2022/12/01 12:33:53;;;;;;;29.90;21.00;;;7.50;99.90;;;;;;5004504;28;20584;-85
2022/12/01 12:36:42;;;;;;;33.60;21.87;;;7.50;99.90;;;;;;5009388;28;20167;-86
2022/12/01 12:39:29;;;;;;;29.40;19.63;;;7.50;99.90;;;;;;5003497;28;20171;-87
2022/12/01 12:41:56;;;;;;;31.77;20.57;;;7.50;99.90;;;;;;5011138;28;20159;-85
2022/12/01 12:44:44;;;;;;;28.60;19.33;;;7.40;99.90;;;;;;5010002;28;20242;-84
2022/12/01 12:47:47;;;;;;;30.37;22.00;;;7.40;99.90;;;;;;5011696;28;20194;-86
2022/12/01 12:50:35;;;;;;;31.60;21.97;;;7.60;99.90;;;;;;5010198;28;20155;-87
2022/12/01 12:53:11;;;;;;;32.97;21.33;;;7.60;99.90;;;;;;5019386;28;20247;-85
2022/12/01 12:55:43;;;;;;;31.60;20.73;;;7.60;99.90;;;;;;5019472;28;20166;-83
2022/12/01 12:58:33;;;;;;;33.43;22.27;;;7.60;99.90;;;;;;5019474;28;20178;-83
2022/12/01 13:01:23;;;;;;;31.23;22.53;;;7.60;99.70;;;;;;5017171;28;20175;-86
2022/12/01 13:04:03;;;;;;;34.00;21.53;;;7.60;99.70;;;;;;5008154;28;20191;-88
2022/12/01 13:06:37;;;;;;;33.13;21.87;;;7.60;99.40;;;;;;4999017;28;20265;-86
2022/12/01 13:09:28;;;;;;;32.90;22.60;;;7.60;98.80;;;;;;4999181;28;20254;-88
2022/12/01 13:12:23;;;;;;;33.70;22.63;;;7.70;99.00;;;;;;5000457;28;20167;-87
2022/12/01 13:14:54;;;;;;;30.43;20.33;;;7.70;98.50;;;;;;4999778;28;20196;-87
2022/12/01 13:17:48;;;;;;;43.20;21.97;;;7.70;98.60;;;;;;4986224;28;20186;-87
2022/12/01 13:20:18;;;;;;;35.13;21.50;;;7.60;98.00;;;;;;5005593;28;20245;-87
2022/12/01 13:22:45;;;;;;;30.50;21.43;;;7.70;97.60;;;;;;5004707;28;20171;-85
2022/12/01 13:25:20;;;;;;;31.93;22.23;;;7.70;97.10;;;;;;5005061;28;20218;-86
2022/12/01 13:27:48;;;;;;;30.67;21.03;;;7.60;96.50;;;;;;4970803;28;20572;-84
2022/12/01 13:30:27;;;;;;;30.30;21.37;;;7.60;96.20;;;;;;5004660;28;20198;-88